createdAt,value
2019-01-05T00:01:42.082Z,13.97
2019-01-05T00:04:47.521Z,15.27
2019-01-05T00:07:44.001Z,14.60
2019-01-05T00:10:32.217Z,15.07
2019-01-05T00:13:30.869Z,15.03
2019-01-05T00:22:25.565Z,14.53
2019-01-05T00:25:21.706Z,13.87
2019-01-05T00:28:15.385Z,14.87
2019-01-05T00:31:20.280Z,13.73
2019-01-05T00:34:22.105Z,13.73
2019-01-05T00:37:29.913Z,13.40
2019-01-05T00:40:21.280Z,14.30
2019-01-05T00:43:21.004Z,13.57
2019-01-05T00:46:17.212Z,14.23
2019-01-05T00:49:20.313Z,13.67
2019-01-05T00:52:27.777Z,11.80
2019-01-05T00:55:32.297Z,13.93
2019-01-05T00:58:21.313Z,13.30
2019-01-05T01:01:22.979Z,14.33
2019-01-05T01:04:11.264Z,13.83
2019-01-05T01:07:16.241Z,14.20
2019-01-05T01:10:04.827Z,14.43
2019-01-05T01:13:00.281Z,13.90
2019-01-05T01:15:48.773Z,14.30
2019-01-05T01:18:31.434Z,13.47
2019-01-05T01:21:13.729Z,13.83
2019-01-05T01:24:09.671Z,13.30
2019-01-05T01:27:05.673Z,14.43
2019-01-05T01:29:56.297Z,14.40
2019-01-05T01:32:44.766Z,13.53
2019-01-05T01:35:33.537Z,13.37
2019-01-05T01:38:36.258Z,15.27
2019-01-05T01:41:38.886Z,14.27
2019-01-05T01:44:29.911Z,13.53
2019-01-05T01:47:19.163Z,13.60
2019-01-05T01:50:08.838Z,14.23
2019-01-05T01:53:06.358Z,15.80
2019-01-05T01:56:01.481Z,14.43
2019-01-05T01:59:00.261Z,15.20
2019-01-05T02:01:50.852Z,14.17
2019-01-05T02:04:39.724Z,14.87
2019-01-05T02:07:31.025Z,16.20
2019-01-05T02:10:37.181Z,16.80
2019-01-05T02:13:33.898Z,18.37
2019-01-05T02:16:35.978Z,15.53
2019-01-05T02:19:40.749Z,14.33
2019-01-05T02:22:56.826Z,16.23
2019-01-05T02:26:35.758Z,14.47
2019-01-05T02:30:05.107Z,16.23
2019-01-05T02:33:40.257Z,14.00
2019-01-05T02:36:52.119Z,15.40
2019-01-05T02:40:20.205Z,15.43
2019-01-05T02:43:59.439Z,16.13
2019-01-05T02:47:43.081Z,15.93
2019-01-05T02:51:11.461Z,15.93
2019-01-05T02:54:36.650Z,15.90
2019-01-05T02:58:01.812Z,15.13
2019-01-05T03:01:38.866Z,16.13
2019-01-05T03:05:23.769Z,16.93
2019-01-05T03:08:58.322Z,15.20
2019-01-05T03:12:19.915Z,15.40
2019-01-05T03:15:28.382Z,16.17
2019-01-05T03:19:18.126Z,15.87
2019-01-05T03:22:56.539Z,16.27
2019-01-05T03:26:27.149Z,18.10
2019-01-05T03:29:48.368Z,17.90
2019-01-05T03:33:23.072Z,18.67
2019-01-05T03:37:04.289Z,15.67
2019-01-05T03:40:43.922Z,17.77
2019-01-05T03:44:13.534Z,18.50
2019-01-05T03:47:38.602Z,18.50
2019-01-05T03:50:57.385Z,19.10
2019-01-05T03:54:35.938Z,18.07
2019-01-05T03:58:14.364Z,16.93
2019-01-05T04:01:45.883Z,18.50
2019-01-05T04:05:25.140Z,19.90
2019-01-05T04:08:45.271Z,18.60
2019-01-05T04:12:26.293Z,19.60
2019-01-05T04:15:53.284Z,19.77
2019-01-05T04:19:21.195Z,19.80
2019-01-05T04:22:39.162Z,18.87
2019-01-05T04:26:28.978Z,20.40
2019-01-05T04:29:34.104Z,20.97
2019-01-05T04:33:05.080Z,21.07
2019-01-05T04:36:25.763Z,20.30
2019-01-05T04:40:05.025Z,19.60
2019-01-05T04:44:02.401Z,21.00
2019-01-05T04:47:49.685Z,21.90
2019-01-05T04:51:07.573Z,21.00
2019-01-05T04:54:42.134Z,22.77
2019-01-05T04:58:15.593Z,21.03
2019-01-05T05:01:44.073Z,21.13
2019-01-05T05:05:31.073Z,18.80
2019-01-05T05:08:58.878Z,21.13
2019-01-05T05:12:28.702Z,20.93
2019-01-05T05:16:11.006Z,20.10
2019-01-05T05:19:35.025Z,19.73
2019-01-05T05:22:49.194Z,20.43
2019-01-05T05:26:26.232Z,19.90
2019-01-05T05:30:06.353Z,18.13
2019-01-05T05:33:47.421Z,17.80
2019-01-05T05:37:06.249Z,19.83
2019-01-05T05:40:33.639Z,19.40
2019-01-05T05:44:16.977Z,20.10
2019-01-05T05:47:31.247Z,19.10
2019-01-05T05:50:59.907Z,17.40
2019-01-05T05:54:37.022Z,19.53
2019-01-05T05:57:59.766Z,21.40
2019-01-05T06:01:47.512Z,20.03
2019-01-05T06:05:18.494Z,21.63
2019-01-05T06:09:05.681Z,19.60
2019-01-05T06:12:50.429Z,19.67
2019-01-05T06:16:27.023Z,18.47
2019-01-05T06:19:53.546Z,19.17
2019-01-05T06:23:22.915Z,17.57
2019-01-05T06:26:49.255Z,18.73
2019-01-05T06:30:20.814Z,18.37
2019-01-05T06:33:50.662Z,19.60
2019-01-05T06:37:01.924Z,18.20
2019-01-05T06:40:40.040Z,17.27
2019-01-05T06:44:21.446Z,17.10
2019-01-05T06:47:52.918Z,15.77
2019-01-05T06:51:33.614Z,17.37
2019-01-05T06:55:11.401Z,15.80
2019-01-05T06:58:46.235Z,11.83
2019-01-05T07:02:11.959Z,11.10
2019-01-05T07:05:49.610Z,10.03
2019-01-05T07:09:14.727Z,9.97
2019-01-05T07:12:49.178Z,9.40
2019-01-05T07:16:38.281Z,9.63
2019-01-05T07:20:12.616Z,8.87
2019-01-05T07:24:03.308Z,9.97
2019-01-05T07:27:41.103Z,8.60
2019-01-05T07:31:41.293Z,8.30
2019-01-05T07:35:15.535Z,9.33
2019-01-05T07:38:55.792Z,8.47
2019-01-05T07:42:40.627Z,6.90
2019-01-05T07:46:35.716Z,7.83
2019-01-05T07:50:19.650Z,7.90
2019-01-05T07:54:07.257Z,7.03
2019-01-05T07:57:44.774Z,6.60
2019-01-05T08:01:30.742Z,7.37
2019-01-05T08:05:06.075Z,6.33
2019-01-05T08:08:52.178Z,7.97
2019-01-05T08:12:22.017Z,7.87
2019-01-05T08:15:55.864Z,8.83
2019-01-05T08:19:38.166Z,9.73
2019-01-05T08:23:04.494Z,9.10
2019-01-05T08:26:25.630Z,8.07
2019-01-05T08:29:50.098Z,8.67
2019-01-05T08:33:22.283Z,8.53
2019-01-05T08:36:47.403Z,8.33
2019-01-05T08:40:28.985Z,8.37
2019-01-05T08:43:58.401Z,8.40
2019-01-05T08:47:36.081Z,8.00
2019-01-05T08:50:56.019Z,8.10
2019-01-05T08:54:25.093Z,8.90
2019-01-05T08:57:53.636Z,8.00
2019-01-05T09:01:18.193Z,8.60
2019-01-05T09:04:33.775Z,7.67
2019-01-05T09:08:05.069Z,8.50
2019-01-05T09:11:17.000Z,7.80
2019-01-05T09:14:50.614Z,8.77
2019-01-05T09:18:47.667Z,7.53
2019-01-05T09:22:11.858Z,10.70
2019-01-05T09:25:42.430Z,10.93
2019-01-05T09:29:23.294Z,10.37
2019-01-05T09:32:51.793Z,14.43
2019-01-05T09:36:07.234Z,9.40
2019-01-05T09:39:24.454Z,8.03
2019-01-05T09:43:03.000Z,7.87
2019-01-05T09:46:24.877Z,7.40
2019-01-05T09:49:38.230Z,12.27
2019-01-05T09:53:19.496Z,12.83
2019-01-05T09:56:34.287Z,15.50
2019-01-05T10:00:00.599Z,16.37
2019-01-05T10:03:45.890Z,9.73
2019-01-05T10:07:02.246Z,9.23
2019-01-05T10:10:46.694Z,8.20
2019-01-05T10:14:15.243Z,7.77
2019-01-05T10:17:54.894Z,7.20
2019-01-05T10:21:32.038Z,7.03
2019-01-05T10:25:13.469Z,7.43
2019-01-05T10:28:33.133Z,8.33
2019-01-05T10:31:54.610Z,16.63
2019-01-05T10:35:23.145Z,13.63
2019-01-05T10:39:21.960Z,10.73
2019-01-05T10:42:54.156Z,7.00
2019-01-05T10:46:35.853Z,7.27
2019-01-05T10:50:11.598Z,11.73
2019-01-05T10:53:34.720Z,18.90
2019-01-05T10:57:03.534Z,14.40
2019-01-05T11:00:36.777Z,13.60
2019-01-05T11:04:26.990Z,10.33
2019-01-05T11:08:18.737Z,8.50
2019-01-05T11:12:12.843Z,6.60
2019-01-05T11:19:45.375Z,7.73
2019-01-05T11:23:31.085Z,8.60
2019-01-05T11:27:07.525Z,9.30
2019-01-05T11:30:51.567Z,20.67
2019-01-05T11:34:04.627Z,21.30
2019-01-05T11:37:43.988Z,19.60
2019-01-05T11:41:13.083Z,16.60
2019-01-05T11:44:57.268Z,16.30
2019-01-05T11:48:18.058Z,12.00
2019-01-05T11:52:28.390Z,11.00
2019-01-05T11:55:56.636Z,11.20
2019-01-05T11:59:35.463Z,14.00
2019-01-05T12:03:19.199Z,16.67
2019-01-05T12:07:15.986Z,12.60
2019-01-05T12:11:01.267Z,18.57
2019-01-05T12:14:38.282Z,24.70
2019-01-05T12:18:20.710Z,23.97
2019-01-05T12:22:01.328Z,25.83
2019-01-05T12:25:19.854Z,16.57
2019-01-05T12:28:45.358Z,19.23
2019-01-05T12:32:05.494Z,18.57
2019-01-05T12:35:38.546Z,18.47
2019-01-05T12:39:29.989Z,19.10
2019-01-05T12:42:53.408Z,17.27
2019-01-05T12:46:30.058Z,23.23
2019-01-05T12:50:03.594Z,19.00
2019-01-05T12:53:36.410Z,12.80
2019-01-05T12:57:14.932Z,9.53
2019-01-05T13:00:35.023Z,7.20
2019-01-05T13:04:19.488Z,5.67
2019-01-05T13:07:42.060Z,5.83
2019-01-05T13:11:27.506Z,5.90
2019-01-05T13:14:48.858Z,5.73
2019-01-05T13:18:20.463Z,5.20
2019-01-05T13:21:49.670Z,5.27
2019-01-05T13:25:17.873Z,4.50
2019-01-05T13:28:42.909Z,4.60
2019-01-05T13:32:56.062Z,4.90
2019-01-05T13:36:24.560Z,4.60
2019-01-05T13:39:47.899Z,7.37
2019-01-05T13:43:17.145Z,5.80
2019-01-05T13:47:00.977Z,6.20
2019-01-05T13:50:18.065Z,6.73
2019-01-05T13:53:28.038Z,6.07
2019-01-05T13:56:26.143Z,7.90
2019-01-05T13:59:07.981Z,8.60
2019-01-05T14:02:06.957Z,11.10
2019-01-05T14:04:55.342Z,14.43
2019-01-05T14:07:45.022Z,14.87
2019-01-05T14:10:40.846Z,23.27
2019-01-05T14:13:37.178Z,19.33
2019-01-05T14:16:45.260Z,11.73
2019-01-05T14:19:33.490Z,15.20
2019-01-05T14:22:29.427Z,14.20
2019-01-05T14:25:37.391Z,9.97
2019-01-05T14:28:35.666Z,10.03
2019-01-05T14:31:25.373Z,10.00
2019-01-05T14:34:13.686Z,10.23
2019-01-05T14:37:17.213Z,10.17
2019-01-05T14:40:06.886Z,14.83
2019-01-05T14:43:14.937Z,14.20
2019-01-05T14:46:03.625Z,10.63
2019-01-05T14:48:53.297Z,10.60
2019-01-05T14:51:42.948Z,10.80
2019-01-05T14:54:32.221Z,11.40
2019-01-05T14:57:20.369Z,10.37
2019-01-05T15:00:08.716Z,11.53
2019-01-05T15:02:57.105Z,10.80
2019-01-05T15:05:54.909Z,11.40
2019-01-05T15:08:50.533Z,12.70
2019-01-05T15:11:48.959Z,10.30
2019-01-05T15:14:38.407Z,9.37
2019-01-05T15:17:27.022Z,9.60
2019-01-05T15:20:15.266Z,8.83
2019-01-05T15:23:04.970Z,8.67
2019-01-05T15:25:54.600Z,8.73
2019-01-05T15:28:47.513Z,8.97
2019-01-05T15:31:36.149Z,11.27
2019-01-05T15:34:24.449Z,8.90
2019-01-05T15:37:12.630Z,9.60
2019-01-05T15:40:01.026Z,8.63
2019-01-05T15:42:56.585Z,11.53
2019-01-05T15:45:46.266Z,11.53
2019-01-05T15:48:45.039Z,11.10
2019-01-05T15:51:33.601Z,10.83
2019-01-05T15:54:23.293Z,10.47
2019-01-05T15:57:18.988Z,11.40
2019-01-05T16:00:14.397Z,11.90
2019-01-05T16:03:02.614Z,11.47
2019-01-05T16:05:50.884Z,11.10
2019-01-05T16:08:39.417Z,11.87
2019-01-05T16:11:27.977Z,11.87
2019-01-05T16:14:16.469Z,13.47
2019-01-05T16:17:15.058Z,14.13
2019-01-05T16:20:10.808Z,13.30
2019-01-05T16:23:09.305Z,13.07
2019-01-05T16:26:11.218Z,13.30
2019-01-05T16:29:16.206Z,13.47
2019-01-05T16:32:23.925Z,15.17
2019-01-05T16:35:17.118Z,15.60
2019-01-05T16:38:05.411Z,16.07
2019-01-05T16:41:07.358Z,19.40
2019-01-05T16:43:48.486Z,15.03
2019-01-05T16:46:47.901Z,13.80
2019-01-05T16:49:36.037Z,14.50
2019-01-05T16:52:24.432Z,14.27
2019-01-05T16:55:23.506Z,14.87
2019-01-05T16:58:22.021Z,18.30
2019-01-05T17:01:27.161Z,16.80
2019-01-05T17:04:15.415Z,14.53
2019-01-05T17:07:23.677Z,12.70
2019-01-05T17:10:31.577Z,12.43
2019-01-05T17:13:19.900Z,12.07
2019-01-05T17:16:11.463Z,14.37
2019-01-05T17:19:00.153Z,12.10
2019-01-05T17:21:48.770Z,12.87
2019-01-05T17:24:36.582Z,12.90
2019-01-05T17:27:24.964Z,11.33
2019-01-05T17:30:13.544Z,13.20
2019-01-05T17:33:21.373Z,12.17
2019-01-05T17:36:06.675Z,12.53
2019-01-05T17:38:51.405Z,14.00
2019-01-05T17:41:49.942Z,12.60
2019-01-05T17:44:38.157Z,13.93
2019-01-05T17:47:36.428Z,12.07
2019-01-05T17:50:26.121Z,18.20
2019-01-05T17:53:15.808Z,13.87
2019-01-05T17:56:00.554Z,13.40
2019-01-05T17:58:48.814Z,13.23
2019-01-05T18:01:34.269Z,13.43
2019-01-05T18:04:22.868Z,13.63
2019-01-05T18:07:15.312Z,13.67
2019-01-05T18:10:10.778Z,13.30
2019-01-05T18:13:00.456Z,12.80
2019-01-05T18:15:48.713Z,13.07
2019-01-05T18:18:41.385Z,13.67
2019-01-05T18:21:31.089Z,13.70
2019-01-05T18:24:23.858Z,13.93
2019-01-05T18:27:31.975Z,14.80
2019-01-05T18:30:39.680Z,13.67
2019-01-05T18:33:35.003Z,14.07
2019-01-05T18:36:35.914Z,13.13
2019-01-05T18:39:29.869Z,14.53
2019-01-05T18:42:18.273Z,13.27
2019-01-05T18:45:08.008Z,13.80
2019-01-05T18:48:16.088Z,11.57
2019-01-05T18:51:04.175Z,10.60
2019-01-05T18:53:57.111Z,9.67
2019-01-05T18:57:21.814Z,11.83
2019-01-05T19:00:26.739Z,11.37
2019-01-05T19:03:14.442Z,11.80
2019-01-05T19:06:00.856Z,13.30
2019-01-05T19:08:45.707Z,12.07
2019-01-05T19:11:35.531Z,12.80
2019-01-05T19:14:24.261Z,13.37
2019-01-05T19:17:20.433Z,12.40
2019-01-05T19:20:08.846Z,12.03
2019-01-05T19:23:05.782Z,15.43
2019-01-05T19:26:09.802Z,13.87
2019-01-05T19:28:58.370Z,12.83
2019-01-05T19:31:53.867Z,12.70
2019-01-05T19:34:54.932Z,12.30
2019-01-05T19:37:43.538Z,12.60
2019-01-05T19:40:32.022Z,13.23
2019-01-05T19:43:40.261Z,13.90
2019-01-05T19:46:30.014Z,12.37
2019-01-05T19:49:19.530Z,11.60
2019-01-05T19:52:17.953Z,12.83
2019-01-05T19:55:06.656Z,12.90
2019-01-05T19:57:55.258Z,12.70
2019-01-05T20:00:36.374Z,12.03
2019-01-05T20:03:25.046Z,12.40
2019-01-05T20:06:13.518Z,11.90
2019-01-05T20:08:59.624Z,12.47
2019-01-05T20:12:04.481Z,11.77
2019-01-05T20:15:08.901Z,12.23
2019-01-05T20:18:01.585Z,12.10
2019-01-05T20:20:50.042Z,14.03
2019-01-05T20:23:38.555Z,13.60
2019-01-05T20:26:34.078Z,12.60
2019-01-05T20:29:35.702Z,10.80
2019-01-05T20:32:37.381Z,10.20
2019-01-05T20:35:27.011Z,10.93
2019-01-05T20:38:15.569Z,10.37
2019-01-05T20:41:05.380Z,11.27
2019-01-05T20:43:49.377Z,10.53
2019-01-05T20:46:37.697Z,10.40
2019-01-05T20:49:39.622Z,13.00
2019-01-05T20:52:27.107Z,11.53
2019-01-05T20:55:35.721Z,9.60
2019-01-05T20:58:25.423Z,10.50
2019-01-05T21:01:13.878Z,10.63
2019-01-05T21:04:02.522Z,10.00
2019-01-05T21:06:50.902Z,9.37
2019-01-05T21:09:55.713Z,9.37
2019-01-05T21:12:45.429Z,9.53
2019-01-05T21:15:41.062Z,9.90
2019-01-05T21:18:29.530Z,10.23
2019-01-05T21:21:34.685Z,10.40
2019-01-05T21:24:36.214Z,10.03
2019-01-05T21:27:31.705Z,11.00
2019-01-05T21:30:21.293Z,9.47
2019-01-05T21:33:26.389Z,10.97
2019-01-05T21:36:31.229Z,9.63
2019-01-05T21:39:19.810Z,10.13
2019-01-05T21:42:27.630Z,9.77
2019-01-05T21:45:16.369Z,9.30
2019-01-05T21:48:12.296Z,9.73
2019-01-05T21:51:00.018Z,9.43
2019-01-05T21:53:48.301Z,9.47
2019-01-05T21:56:40.985Z,8.80
2019-01-05T21:59:42.697Z,9.43
2019-01-05T22:02:31.251Z,8.90
2019-01-05T22:05:20.078Z,9.20
2019-01-05T22:08:03.740Z,9.90
2019-01-05T22:10:53.890Z,9.50
2019-01-05T22:13:34.978Z,10.00
2019-01-05T22:16:23.560Z,9.70
2019-01-05T22:19:13.277Z,10.43
2019-01-05T22:22:18.036Z,9.47
2019-01-05T22:25:22.872Z,8.83
2019-01-05T22:28:23.610Z,9.77
2019-01-05T22:31:12.059Z,9.50
2019-01-05T22:34:13.780Z,10.37
2019-01-05T22:36:57.058Z,9.40
2019-01-05T22:39:52.790Z,9.37
2019-01-05T22:42:41.378Z,10.50
2019-01-05T22:45:46.122Z,10.90
2019-01-05T22:48:35.821Z,9.90
2019-01-05T22:51:34.528Z,9.70
2019-01-05T22:54:15.625Z,11.30
2019-01-05T22:57:06.461Z,10.47
2019-01-05T23:00:02.333Z,11.63
2019-01-05T23:03:11.542Z,10.33
2019-01-05T23:06:11.968Z,10.43
2019-01-05T23:09:00.061Z,10.30
2019-01-05T23:11:48.323Z,10.33
2019-01-05T23:14:46.731Z,9.53
2019-01-05T23:17:42.562Z,11.00
2019-01-05T23:20:31.108Z,11.10
2019-01-05T23:23:27.430Z,10.80
2019-01-05T23:26:34.936Z,10.47
2019-01-05T23:29:29.656Z,10.40
2019-01-05T23:32:18.497Z,9.63
2019-01-05T23:35:14.005Z,10.50
2019-01-05T23:38:18.773Z,10.07
2019-01-05T23:41:07.233Z,9.67
2019-01-05T23:43:56.401Z,9.90
2019-01-05T23:46:46.014Z,10.27
2019-01-05T23:49:47.778Z,10.07
2019-01-05T23:52:36.384Z,9.80
2019-01-05T23:55:26.150Z,10.63
2019-01-05T23:58:42.941Z,10.10
